Time;durP1;ratioP1;P1;durP2;ratioP2;P2;SDS_P1;SDS_P2;PMS_P1;PMS_P2;Temp;Humidity;BMP_temperature;BMP_pressure;BME280_temperature;BME280_humidity;BME280_pressure;Samples;Min_cycle;Max_cycle;Signal;HPM_P1;HPM_P2
2021/03/10 00:00:52;;;;;;;38.43;26.00;;;1.40;1.40;;;2.32;100.00;95461.99;641164;221;24497;-74
2021/03/10 00:03:21;;;;;;;29.67;23.97;;;1.40;1.40;;;2.38;100.00;95464.78;641619;221;24883;-74
2021/03/10 00:05:51;;;;;;;27.40;23.30;;;1.30;1.40;;;2.45;100.00;95467.23;640966;221;24496;-75
2021/03/10 00:08:20;;;;;;;34.50;25.70;;;1.40;1.40;;;2.42;100.00;95461.64;638539;221;28836;-75
2021/03/10 00:10:49;;;;;;;35.10;25.43;;;1.40;1.40;;;2.26;100.00;95460.81;641351;221;24497;-74
2021/03/10 00:13:18;;;;;;;30.37;22.57;;;1.30;1.40;;;2.22;100.00;95457.42;640650;221;24487;-75
2021/03/10 00:15:47;;;;;;;32.37;24.50;;;1.30;1.40;;;2.19;100.00;95454.34;641808;220;24507;-75
2021/03/10 00:18:16;;;;;;;30.20;24.30;;;1.30;1.40;;;2.13;100.00;95463.80;637715;220;25071;-74
2021/03/10 00:20:45;;;;;;;31.00;23.60;;;1.30;1.40;;;2.07;100.00;95465.17;640336;221;24549;-74
2021/03/10 00:25:48;;;;;;;36.50;31.05;;;1.30;1.40;;;2.06;100.00;95465.48;647658;216;31566;-73
2021/03/10 00:28:17;;;;;;;30.90;25.47;;;1.30;1.40;;;2.09;100.00;95463.49;640870;220;24986;-74
2021/03/10 00:30:46;;;;;;;32.07;26.97;;;1.30;1.40;;;2.13;100.00;95464.39;640625;221;24550;-74
2021/03/10 00:35:51;;;;;;;39.50;33.63;;;1.30;1.40;;;2.11;100.00;95471.86;646537;216;31561;-73
2021/03/10 00:38:21;;;;;;;36.67;28.47;;;1.30;1.40;;;2.08;100.00;95472.20;640441;221;23594;-74
2021/03/10 00:40:50;;;;;;;31.70;25.77;;;1.30;1.40;;;1.96;100.00;95475.23;641255;220;24533;-74
2021/03/10 00:43:19;;;;;;;32.20;24.60;;;1.20;1.40;;;1.81;100.00;95472.03;657142;215;24501;-73
2021/03/10 00:45:48;;;;;;;30.67;24.07;;;1.10;1.40;;;1.68;100.00;95480.00;671349;211;24420;-74
2021/03/10 00:48:17;;;;;;;32.50;25.37;;;1.00;1.40;;;1.61;100.00;95474.70;667999;211;26546;-74
2021/03/10 00:50:46;;;;;;;34.23;25.80;;;0.90;1.40;;;1.53;100.00;95467.33;654561;215;25870;-74
2021/03/10 00:53:15;;;;;;;32.00;25.50;;;0.90;1.40;;;1.52;100.00;95471.38;641995;220;24500;-73
2021/03/10 00:55:44;;;;;;;31.97;25.60;;;0.90;1.40;;;1.49;100.00;95470.27;668876;211;24465;-73
2021/03/10 00:58:13;;;;;;;32.47;23.50;;;0.80;1.40;;;1.43;100.00;95471.92;668290;211;28969;-74
2021/03/10 01:00:42;;;;;;;28.23;23.10;;;0.80;1.40;;;1.40;100.00;95470.50;669974;211;24427;-74
2021/03/10 01:03:11;;;;;;;30.30;23.90;;;0.80;1.40;;;1.43;100.00;95464.44;669081;211;24422;-73
2021/03/10 01:05:40;;;;;;;32.43;23.07;;;0.80;1.40;;;1.46;100.00;95466.52;667535;211;24971;-75
2021/03/10 01:08:09;;;;;;;33.80;27.50;;;0.80;1.40;;;1.58;100.00;95465.09;669931;211;24435;-73
2021/03/10 01:10:39;;;;;;;32.70;24.90;;;0.90;1.40;;;1.58;100.00;95460.13;653353;216;24681;-73
2021/03/10 01:13:07;;;;;;;32.97;24.90;;;0.90;1.40;;;1.57;100.00;95463.38;655388;216;24581;-73
2021/03/10 01:15:37;;;;;;;34.83;26.57;;;0.80;1.40;;;1.58;100.00;95463.18;668739;211;29108;-74
2021/03/10 01:18:06;;;;;;;35.20;27.03;;;0.90;1.40;;;1.59;100.00;95462.44;669270;211;24415;-73
2021/03/10 01:20:35;;;;;;;36.00;26.90;;;0.80;1.40;;;1.55;100.00;95458.44;665241;211;24462;-74
2021/03/10 01:23:04;;;;;;;34.67;26.70;;;0.80;1.40;;;1.60;100.00;95460.26;669061;211;24416;-74
2021/03/10 01:25:33;;;;;;;37.83;27.17;;;0.90;1.40;;;1.59;100.00;95451.37;662789;211;24675;-73
2021/03/10 01:28:02;;;;;;;35.33;27.20;;;0.80;1.40;;;1.50;100.00;95444.86;641955;220;24610;-74
2021/03/10 01:30:31;;;;;;;34.40;26.67;;;0.80;1.40;;;1.55;100.00;95441.88;655442;215;24472;-74
2021/03/10 01:33:00;;;;;;;33.43;25.37;;;0.80;1.40;;;1.54;100.00;95443.03;656737;216;24494;-74
2021/03/10 01:35:55;;;;;;;42.58;34.45;;;0.80;1.40;;;1.54;100.00;95438.92;646591;212;42425;-74
2021/03/10 01:38:24;;;;;;;38.67;31.03;;;0.80;1.40;;;1.56;100.00;95440.12;642015;220;23474;-73
2021/03/10 01:40:53;;;;;;;43.60;35.40;;;0.80;1.40;;;1.57;100.00;95439.28;633658;220;31901;-73
2021/03/10 01:43:22;;;;;;;38.90;29.93;;;0.90;1.40;;;1.60;100.00;95442.63;641384;221;23532;-73
2021/03/10 01:45:51;;;;;;;41.70;30.30;;;0.80;1.40;;;1.52;100.00;95445.25;640328;221;30793;-73
2021/03/10 01:48:21;;;;;;;36.93;29.13;;;0.90;1.40;;;1.54;100.00;95438.72;655914;216;24465;-73
2021/03/10 01:50:49;;;;;;;42.70;29.17;;;0.80;1.40;;;1.54;100.00;95436.62;669175;211;24914;-74
2021/03/10 01:53:18;;;;;;;42.72;35.50;;;0.80;1.40;;;1.47;100.00;95435.12;648963;215;31945;-74
2021/03/10 01:55:48;;;;;;;40.10;29.70;;;0.80;1.40;;;1.52;100.00;95433.02;648572;217;28775;-74
2021/03/10 01:58:17;;;;;;;38.93;29.20;;;0.80;1.40;;;1.48;100.00;95429.20;669359;211;24441;-73
2021/03/10 02:00:46;;;;;;;36.10;29.20;;;0.80;1.40;;;1.43;100.00;95432.72;668279;211;25469;-73
2021/03/10 02:03:15;;;;;;;47.55;38.00;;;0.80;1.40;;;1.43;100.00;95425.99;663792;211;31542;-74
2021/03/10 02:05:44;;;;;;;38.90;30.57;;;0.80;1.40;;;1.47;100.00;95419.84;669330;211;23470;-74
2021/03/10 02:08:30;;;;;;;32.70;27.03;;;0.80;1.40;;;1.53;100.00;95426.30;669649;211;24997;-74
2021/03/10 02:11:12;;;;;;;45.40;36.67;;;0.80;1.40;;;1.57;100.00;95426.83;645966;212;31632;-75
2021/03/10 02:13:59;;;;;;;41.67;32.13;;;0.80;1.40;;;1.57;100.00;95424.53;641116;220;23490;-74
2021/03/10 02:16:33;;;;;;;48.73;38.60;;;0.90;1.40;;;1.59;100.00;95422.10;635589;220;32288;-73
2021/03/10 02:19:26;;;;;;;54.60;42.38;;;0.90;1.40;;;1.65;100.00;95421.42;637264;219;32037;-74
2021/03/10 02:22:07;;;;;;;45.37;33.37;;;0.80;1.40;;;1.70;100.00;95419.53;669397;211;23458;-74
2021/03/10 02:24:52;;;;;;;38.93;30.50;;;0.90;1.40;;;1.67;100.00;95415.30;668577;211;24453;-75
2021/03/10 02:27:49;;;;;;;51.63;38.70;;;0.90;1.40;;;1.72;100.00;95412.77;619402;226;32044;-74
2021/03/10 02:30:42;;;;;;;55.88;43.20;;;0.90;1.40;;;1.71;100.00;95414.63;646358;212;31593;-75
2021/03/10 02:35:56;;;;;;;51.58;41.75;;;0.90;1.40;;;1.84;100.00;95411.03;645919;216;32183;-74
2021/03/10 02:38:25;;;;;;;53.85;43.03;;;0.90;1.40;;;1.89;100.00;95416.67;635196;221;33081;-74
2021/03/10 02:40:54;;;;;;;42.80;34.50;;;0.90;1.40;;;1.90;100.00;95415.63;640938;220;23490;-75
2021/03/10 02:43:23;;;;;;;41.53;32.43;;;1.00;1.40;;;1.92;100.00;95419.28;638730;221;30901;-74
2021/03/10 02:45:52;;;;;;;45.00;31.60;;;1.00;1.40;;;1.95;100.00;95420.31;641281;221;24508;-74
2021/03/10 02:48:21;;;;;;;47.80;32.70;;;1.00;1.40;;;2.00;100.00;95418.13;642858;219;24482;-75
2021/03/10 02:50:51;;;;;;;46.30;34.37;;;1.00;1.40;;;2.05;100.00;95424.36;641284;220;24522;-74
2021/03/10 02:53:20;;;;;;;44.83;31.40;;;1.10;1.40;;;1.98;100.00;95422.92;656203;215;24469;-73
2021/03/10 02:55:49;;;;;;;58.60;44.67;;;1.10;1.40;;;1.97;100.00;95415.80;644594;218;31756;-73
2021/03/10 02:58:18;;;;;;;47.13;37.17;;;1.10;1.40;;;2.02;100.00;95413.66;668692;211;23438;-74
2021/03/10 03:00:47;;;;;;;50.37;33.70;;;1.10;1.40;;;2.02;100.00;95416.34;659451;211;24477;-74
2021/03/10 03:03:16;;;;;;;44.40;33.47;;;1.10;1.40;;;1.88;100.00;95419.55;669021;211;24423;-74
2021/03/10 03:05:45;;;;;;;50.00;32.83;;;1.10;1.40;;;1.96;100.00;95413.34;669713;211;27803;-74
2021/03/10 03:11:30;;;;;;;57.40;44.55;;;1.10;1.40;;;1.85;100.00;95418.21;643088;215;31615;-74
2021/03/10 03:13:59;;;;;;;47.53;34.83;;;1.10;1.40;;;1.79;100.00;95419.85;640801;220;23460;-75
2021/03/10 03:16:28;;;;;;;45.63;33.87;;;1.10;1.40;;;1.81;100.00;95420.63;641637;220;24569;-74
2021/03/10 03:18:57;;;;;;;48.20;34.40;;;1.10;1.40;;;1.87;100.00;95421.63;641265;220;24495;-74
2021/03/10 03:21:26;;;;;;;46.60;34.53;;;1.10;1.40;;;1.93;100.00;95426.98;641393;221;24553;-74
2021/03/10 03:23:55;;;;;;;48.57;35.73;;;1.10;1.40;;;1.89;100.00;95427.15;643119;220;24506;-74
2021/03/10 03:26:24;;;;;;;45.53;34.77;;;1.10;1.40;;;1.94;100.00;95431.48;631599;221;25677;-75
2021/03/10 03:28:53;;;;;;;48.43;32.70;;;1.20;1.40;;;1.92;100.00;95429.00;642268;220;24672;-74
2021/03/10 03:31:22;;;;;;;44.63;33.53;;;1.20;1.40;;;1.92;100.00;95437.94;641502;220;24675;-75
2021/03/10 03:35:52;;;;;;;61.63;46.10;;;1.20;1.40;;;1.99;100.00;95431.70;646692;212;42221;-74
2021/03/10 03:38:22;;;;;;;51.30;38.10;;;1.20;1.40;;;1.98;100.00;95435.70;657051;215;23421;-74
2021/03/10 03:40:51;;;;;;;52.37;37.40;;;1.20;1.40;;;2.05;100.00;95435.42;668954;211;25479;-74
2021/03/10 03:45:58;;;;;;;60.75;44.78;;;1.20;1.40;;;2.02;100.00;95441.78;646062;216;31622;-75
2021/03/10 03:48:28;;;;;;;49.40;39.20;;;1.20;1.40;;;1.98;100.00;95445.59;640819;220;23475;-75
2021/03/10 03:50:56;;;;;;;48.10;36.87;;;1.20;1.40;;;1.95;100.00;95441.48;640505;221;24585;-74
2021/03/10 03:53:25;;;;;;;53.20;36.30;;;1.30;1.40;;;1.98;100.00;95444.30;640900;221;24539;-74
2021/03/10 03:55:54;;;;;;;53.37;36.40;;;1.30;1.40;;;2.00;100.00;95443.58;641059;221;24509;-74
2021/03/10 03:58:23;;;;;;;53.07;37.50;;;1.30;1.40;;;2.00;100.00;95442.99;640449;220;24511;-74
2021/03/10 04:00:52;;;;;;;55.70;36.00;;;1.30;1.40;;;2.03;100.00;95446.45;638956;221;24601;-74
2021/03/10 04:03:21;;;;;;;52.33;36.60;;;1.30;1.40;;;2.01;100.00;95446.53;641711;221;24540;-75
2021/03/10 04:05:50;;;;;;;54.97;35.97;;;1.30;1.40;;;2.02;100.00;95446.27;641776;221;24524;-75
2021/03/10 04:08:19;;;;;;;57.27;37.80;;;1.30;1.40;;;2.05;100.00;95452.86;643101;220;24475;-75
2021/03/10 04:10:48;;;;;;;67.35;49.20;;;1.30;1.40;;;2.05;100.00;95452.00;663386;211;31523;-75
2021/03/10 04:13:17;;;;;;;60.13;42.40;;;1.30;1.40;;;2.06;100.00;95451.42;668703;211;23437;-74
2021/03/10 04:15:46;;;;;;;63.28;49.20;;;1.30;1.40;;;2.10;100.00;95451.69;647754;216;31918;-75
2021/03/10 04:18:16;;;;;;;55.30;40.23;;;1.30;1.40;;;2.09;100.00;95452.53;668697;211;24560;-75
2021/03/10 04:20:45;;;;;;;64.55;46.95;;;1.30;1.40;;;2.10;100.00;95454.31;663756;211;31512;-74
2021/03/10 04:23:14;;;;;;;56.47;42.30;;;1.40;1.40;;;2.10;100.00;95457.62;669960;211;28695;-75
2021/03/10 04:25:43;;;;;;;55.10;40.70;;;1.30;1.40;;;2.08;100.00;95458.83;662855;211;24484;-74
2021/03/10 04:28:12;;;;;;;53.03;37.37;;;1.30;1.40;;;2.12;100.00;95454.92;642450;221;24549;-75
2021/03/10 04:30:41;;;;;;;58.10;40.07;;;1.40;1.40;;;2.18;100.00;95455.52;654096;215;24956;-75
2021/03/10 04:35:53;;;;;;;62.80;47.83;;;1.40;1.40;;;2.10;100.00;95461.04;641638;217;31579;-75
2021/03/10 04:38:22;;;;;;;57.23;42.10;;;1.40;1.40;;;2.12;100.00;95461.34;639329;220;24680;-75
2021/03/10 04:40:51;;;;;;;61.50;40.30;;;1.40;1.40;;;2.13;100.00;95463.00;639162;220;27749;-75
2021/03/10 04:43:20;;;;;;;54.30;37.33;;;1.40;1.40;;;2.12;100.00;95465.50;639807;220;24522;-75
2021/03/10 04:45:49;;;;;;;59.23;40.10;;;1.40;1.40;;;2.07;100.00;95471.91;639460;221;28919;-75
2021/03/10 04:48:18;;;;;;;54.33;38.07;;;1.40;1.40;;;2.10;100.00;95479.55;636019;221;24536;-75
2021/03/10 04:50:47;;;;;;;64.43;48.33;;;1.50;1.40;;;2.11;100.00;95476.13;635176;221;31808;-75
2021/03/10 04:53:16;;;;;;;59.90;41.70;;;1.40;1.40;;;2.09;100.00;95475.57;639743;221;23580;-75
2021/03/10 04:55:45;;;;;;;58.60;42.40;;;1.40;1.40;;;2.07;100.00;95475.23;639885;220;24556;-75
2021/03/10 04:58:14;;;;;;;61.53;39.87;;;1.50;1.40;;;2.08;100.00;95481.66;640152;221;24547;-75
2021/03/10 05:00:43;;;;;;;65.93;48.85;;;1.50;1.40;;;2.13;100.00;95474.55;632109;220;31828;-75
2021/03/10 05:03:12;;;;;;;58.23;40.60;;;1.50;1.40;;;2.14;100.00;95487.98;638856;221;23499;-75
2021/03/10 05:05:41;;;;;;;54.50;38.00;;;1.50;1.40;;;2.13;100.00;95484.39;638902;221;24607;-75
2021/03/10 05:08:11;;;;;;;60.07;38.33;;;1.60;1.40;;;2.16;100.00;95487.05;639265;221;24518;-75
2021/03/10 05:10:40;;;;;;;60.92;46.28;;;1.50;1.40;;;2.11;100.00;95492.02;633620;221;31893;-75
2021/03/10 05:13:09;;;;;;;63.05;48.42;;;1.50;1.40;;;2.14;100.00;95493.06;632745;221;32146;-75
2021/03/10 05:15:38;;;;;;;59.00;47.88;;;1.50;1.40;;;2.17;100.00;95492.67;633255;220;32476;-75
2021/03/10 05:18:07;;;;;;;56.30;41.10;;;1.50;1.40;;;2.13;100.00;95494.66;638478;221;24517;-75
2021/03/10 05:20:36;;;;;;;49.30;37.30;;;1.50;1.40;;;2.12;100.00;95500.69;637466;221;24747;-74
2021/03/10 05:23:05;;;;;;;54.30;35.97;;;1.50;1.40;;;2.09;100.00;95504.02;639115;221;24528;-74
2021/03/10 05:25:34;;;;;;;56.65;44.97;;;1.50;1.40;;;2.08;100.00;95501.07;628057;221;31947;-74
2021/03/10 05:28:03;;;;;;;48.30;37.00;;;1.50;1.40;;;2.08;100.00;95504.17;626443;225;23500;-75
2021/03/10 05:30:32;;;;;;;50.83;36.57;;;1.50;1.40;;;2.04;100.00;95510.89;625759;225;25100;-74
2021/03/10 05:33:01;;;;;;;46.97;32.97;;;1.50;1.40;;;2.07;100.00;95509.29;627585;225;24549;-75
2021/03/10 05:35:51;;;;;;;59.72;43.47;;;1.50;1.40;;;2.10;100.00;95512.69;646786;212;42251;-73
2021/03/10 05:38:20;;;;;;;56.37;40.27;;;1.50;1.40;;;2.15;100.00;95515.20;641302;220;23494;-74
2021/03/10 05:40:49;;;;;;;48.27;35.47;;;1.50;1.40;;;2.13;100.00;95516.64;640490;220;24530;-74
2021/03/10 05:43:18;;;;;;;59.20;44.17;;;1.50;1.40;;;2.10;100.00;95518.91;635205;220;31792;-74
2021/03/10 05:45:47;;;;;;;52.73;39.47;;;1.50;1.40;;;2.10;100.00;95510.61;640591;221;29068;-74
2021/03/10 05:48:16;;;;;;;45.90;36.13;;;1.50;1.40;;;2.17;100.00;95515.51;641833;220;24509;-74
2021/03/10 05:50:46;;;;;;;58.20;46.13;;;1.50;1.40;;;2.15;100.00;95518.63;633064;220;32075;-74
2021/03/10 05:53:15;;;;;;;57.57;38.20;;;1.50;1.40;;;2.17;100.00;95519.41;640288;220;23468;-74
2021/03/10 05:55:44;;;;;;;51.90;37.20;;;1.50;1.40;;;2.19;100.00;95521.89;640292;221;24951;-74
2021/03/10 05:58:13;;;;;;;48.50;35.13;;;1.50;1.40;;;2.18;100.00;95523.59;655634;216;24444;-74
2021/03/10 06:00:45;;;;;;;50.10;34.70;;;1.50;1.40;;;2.18;100.00;95520.17;654447;215;24485;-74
2021/03/10 06:03:14;;;;;;;49.67;33.57;;;1.50;1.40;;;2.16;100.00;95525.02;668174;211;24610;-73
2021/03/10 06:05:43;;;;;;;47.17;33.70;;;1.60;1.40;;;2.18;100.00;95518.56;666312;211;24408;-71
2021/03/10 06:08:15;;;;;;;49.43;35.57;;;1.60;1.40;;;2.21;100.00;95520.84;655821;215;24554;-79
2021/03/10 06:10:46;;;;;;;49.40;35.70;;;1.70;1.40;;;2.29;100.00;95519.25;655850;216;24458;-79
2021/03/10 06:15:52;;;;;;;58.35;45.83;;;1.70;1.40;;;2.41;100.00;95522.64;647283;216;31752;-75
2021/03/10 06:18:39;;;;;;;57.77;38.33;;;1.70;1.40;;;2.37;100.00;95522.17;641500;221;24538;-75
2021/03/10 06:21:11;;;;;;;50.67;37.53;;;1.70;1.40;;;2.37;100.00;95515.48;638627;220;24668;-75
2021/03/10 06:23:50;;;;;;;48.77;35.67;;;1.60;1.40;;;2.33;100.00;95522.93;640470;220;24656;-75
2021/03/10 06:26:20;;;;;;;51.60;34.30;;;1.60;1.40;;;2.30;100.00;95541.63;631644;221;24614;-75
2021/03/10 06:28:49;;;;;;;48.50;35.77;;;1.60;1.40;;;2.33;100.00;95538.07;643104;219;24497;-75
2021/03/10 06:31:23;;;;;;;47.90;35.10;;;1.70;1.40;;;2.37;100.00;95541.49;638138;223;24514;-75
2021/03/10 06:35:51;;;;;;;60.10;46.45;;;1.70;1.40;;;2.39;100.00;95548.25;648122;212;31586;-76
2021/03/10 06:38:20;;;;;;;45.40;36.77;;;1.80;1.40;;;2.49;100.00;95544.59;639668;220;23541;-75
2021/03/10 06:40:54;;;;;;;55.77;37.97;;;1.90;1.40;;;2.55;100.00;95539.63;640512;220;25956;-75
2021/03/10 06:43:33;;;;;;;44.53;34.37;;;1.90;1.40;;;2.58;100.00;95540.08;643786;219;24518;-75
2021/03/10 06:48:36;;;;;;;59.67;42.53;;;2.00;1.40;;;2.59;100.00;95563.22;620254;226;32353;-76
2021/03/10 06:51:13;;;;;;;52.00;37.20;;;1.90;1.40;;;2.66;100.00;95568.51;615216;230;23591;-75
2021/03/10 06:53:41;;;;;;;47.67;34.40;;;2.00;1.40;;;2.63;100.00;95571.31;615005;229;26690;-76
2021/03/10 06:56:20;;;;;;;54.40;42.08;;;2.00;1.40;;;2.64;100.00;95576.52;610754;230;32411;-75
2021/03/10 06:59:03;;;;;;;50.30;36.53;;;2.00;1.40;;;2.69;100.00;95576.03;617145;230;23583;-76
2021/03/10 07:01:38;;;;;;;52.70;36.23;;;2.00;1.40;;;2.70;100.00;95581.39;615506;229;24621;-76
2021/03/10 07:04:08;;;;;;;46.23;33.77;;;2.00;1.40;;;2.74;100.00;95571.91;615804;230;24669;-75
2021/03/10 07:06:37;;;;;;;48.17;30.50;;;2.10;1.40;;;2.71;100.00;95569.20;616728;229;24713;-75
2021/03/10 07:09:12;;;;;;;45.00;32.63;;;2.10;1.40;;;2.78;100.00;95574.09;614843;229;24777;-74
2021/03/10 07:11:40;;;;;;;45.83;32.93;;;2.10;1.40;;;2.88;100.00;95581.98;615325;230;24613;-74
2021/03/10 07:14:08;;;;;;;53.40;42.13;;;2.20;1.40;;;3.05;100.00;95576.17;610607;230;32695;-76
2021/03/10 07:16:37;;;;;;;51.55;41.78;;;2.30;1.40;;;3.01;100.00;95579.66;610443;230;32365;-75
2021/03/10 07:19:06;;;;;;;47.83;35.80;;;2.20;1.40;;;2.92;100.00;95582.66;628927;225;24576;-75
2021/03/10 07:21:55;;;;;;;50.10;32.57;;;2.30;1.40;;;3.03;100.00;95581.94;625709;228;24600;-75
2021/03/10 07:24:37;;;;;;;48.50;37.65;;;2.30;1.40;;;2.93;100.00;95593.54;645692;212;32491;-76
2021/03/10 07:27:07;;;;;;;46.70;34.47;;;2.30;1.40;;;2.99;100.00;95598.55;642774;220;25615;-75
2021/03/10 07:29:37;;;;;;;48.28;38.10;;;2.20;1.40;;;2.90;100.00;95599.40;636066;222;32054;-75
2021/03/10 07:32:06;;;;;;;42.00;31.40;;;2.20;1.40;;;2.83;100.00;95598.52;655654;215;23450;-75
2021/03/10 07:35:58;;;;;;;49.95;40.00;;;2.30;1.40;;;3.08;100.00;95595.80;645363;216;42239;-76
2021/03/10 07:38:42;;;;;;;50.58;41.35;;;2.30;1.40;;;3.22;100.00;95604.73;642877;219;31876;-76
2021/03/10 07:41:12;;;;;;;43.87;32.63;;;2.40;1.40;;;3.03;100.00;95613.27;653746;216;23430;-75
2021/03/10 07:43:46;;;;;;;41.60;30.10;;;2.40;1.40;;;3.10;100.00;95614.25;669141;211;24513;-76
2021/03/10 07:46:20;;;;;;;42.97;30.80;;;2.50;1.40;;;3.14;100.00;95621.25;669553;211;24389;-76
2021/03/10 07:48:49;;;;;;;39.77;28.13;;;2.50;1.40;;;3.24;100.00;95629.30;655895;216;24530;-76
2021/03/10 07:51:28;;;;;;;42.60;29.70;;;2.60;1.40;;;3.28;100.00;95628.31;641822;220;24546;-76
2021/03/10 07:53:58;;;;;;;38.30;29.60;;;2.60;1.40;;;3.52;100.00;95625.97;666883;211;24935;-75
2021/03/10 07:56:28;;;;;;;43.43;30.97;;;2.80;1.40;;;3.51;100.00;95623.02;667555;211;24428;-76
2021/03/10 07:59:10;;;;;;;39.27;30.97;;;2.90;1.40;;;3.64;100.00;95622.45;668174;211;27600;-75
2021/03/10 08:01:40;;;;;;;44.07;27.57;;;2.90;1.40;;;3.50;100.00;95631.38;670517;211;24473;-76
2021/03/10 08:04:10;;;;;;;39.80;28.97;;;2.80;1.40;;;3.56;100.00;95639.81;669115;211;24430;-76
2021/03/10 08:06:42;;;;;;;46.55;37.55;;;2.80;1.40;;;3.63;100.00;95640.73;663553;211;42198;-73
2021/03/10 08:09:11;;;;;;;39.87;29.93;;;2.80;1.40;;;3.59;100.00;95637.53;670114;211;23410;-74
2021/03/10 08:11:43;;;;;;;41.37;31.53;;;2.90;1.40;;;3.65;100.00;95637.73;667813;211;24388;-74
2021/03/10 08:14:13;;;;;;;40.43;28.50;;;2.90;1.40;;;3.61;100.00;95635.41;641244;220;24533;-75
2021/03/10 08:16:45;;;;;;;38.37;27.97;;;2.90;1.40;;;3.62;100.00;95637.34;669763;211;24462;-75
2021/03/10 08:19:14;;;;;;;43.47;33.95;;;2.90;1.40;;;3.56;100.00;95644.38;663137;211;31994;-75
2021/03/10 08:21:47;;;;;;;44.95;35.55;;;2.90;1.40;;;3.58;100.00;95642.25;662493;211;31446;-75
2021/03/10 08:24:16;;;;;;;44.43;31.40;;;2.90;1.40;;;3.63;100.00;95643.20;647733;220;23482;-76
2021/03/10 08:26:48;;;;;;;45.93;28.53;;;3.00;1.40;;;3.55;100.00;95641.09;655542;211;24991;-75
2021/03/10 08:29:17;;;;;;;42.10;33.50;;;2.90;1.40;;;3.68;100.00;95645.16;636040;221;31801;-75
2021/03/10 08:31:49;;;;;;;37.80;28.70;;;2.90;1.40;;;3.58;100.00;95646.59;654346;215;24467;-75
2021/03/10 08:38:33;;;;;;;43.47;34.47;;;3.00;1.40;;;3.76;100.00;95638.06;649103;216;31603;-78
2021/03/10 08:41:04;;;;;;;35.77;26.43;;;3.00;1.40;;;3.69;100.00;95634.61;642503;221;23464;-78
2021/03/10 08:43:33;;;;;;;36.73;28.47;;;3.00;1.40;;;3.73;100.00;95634.72;640672;221;24473;-79
2021/03/10 08:48:38;;;;;;;39.33;31.65;;;3.10;1.40;;;3.85;100.00;95649.92;619949;222;31897;-74
2021/03/10 08:51:07;;;;;;;40.60;29.50;;;3.20;1.40;;;3.84;100.00;95652.12;641976;220;23498;-74
2021/03/10 08:53:36;;;;;;;36.57;26.23;;;3.10;1.40;;;3.76;100.00;95653.30;642916;220;24505;-74
2021/03/10 08:56:06;;;;;;;37.60;25.87;;;3.10;1.40;;;3.87;100.00;95648.98;641391;220;24594;-74
2021/03/10 08:58:35;;;;;;;38.17;29.17;;;3.20;1.40;;;3.99;100.00;95655.47;641127;220;24532;-74
2021/03/10 09:03:43;;;;;;;38.90;32.05;;;3.40;1.40;;;4.03;100.00;95646.66;647163;216;31893;-75
2021/03/10 09:06:12;;;;;;;36.07;28.00;;;3.40;1.40;;;3.98;100.00;95657.02;642237;220;27397;-74
2021/03/10 09:08:41;;;;;;;32.27;25.33;;;3.30;1.40;;;4.04;100.00;95652.98;641896;221;24580;-73
2021/03/10 09:11:10;;;;;;;34.43;25.60;;;3.40;1.40;;;4.25;100.00;95647.24;641941;220;24505;-75
2021/03/10 09:13:40;;;;;;;33.47;24.20;;;3.60;1.40;;;4.35;100.00;95651.41;639648;221;24489;-76
2021/03/10 09:16:09;;;;;;;36.37;25.97;;;3.70;1.40;;;4.56;100.00;95648.69;640383;220;26658;-75
2021/03/10 09:18:38;;;;;;;38.07;27.43;;;4.00;1.40;;;5.00;100.00;95646.70;639254;220;24517;-75
2021/03/10 09:21:07;;;;;;;32.87;24.80;;;4.20;1.40;;;5.09;100.00;95648.05;641395;221;24632;-75
2021/03/10 09:23:37;;;;;;;31.23;24.10;;;4.20;1.40;;;5.13;100.00;95645.42;640849;221;28820;-75
2021/03/10 09:26:06;;;;;;;33.28;28.45;;;4.30;1.40;;;5.24;100.00;95646.50;627844;220;32535;-75
2021/03/10 09:28:35;;;;;;;33.95;29.17;;;4.30;1.40;;;5.52;100.00;95644.03;637847;221;31730;-75
2021/03/10 09:31:13;;;;;;;32.75;27.87;;;4.40;1.40;;;5.35;99.00;95648.18;633474;220;31645;-75
2021/03/10 09:35:57;;;;;;;31.65;27.05;;;4.20;1.40;;;5.26;99.43;95657.73;648003;216;31757;-75
2021/03/10 09:38:26;;;;;;;27.93;24.00;;;4.30;1.40;;;5.67;99.08;95651.12;641854;220;23490;-76
2021/03/10 09:40:58;;;;;;;31.90;27.20;;;4.80;1.40;;;5.61;98.93;95656.44;635680;221;32239;-75
2021/03/10 09:43:28;;;;;;;25.90;23.10;;;4.70;1.40;;;5.33;98.28;95659.91;641538;220;23535;-75
2021/03/10 09:45:59;;;;;;;29.07;23.80;;;4.40;1.40;;;5.44;97.69;95657.42;638424;221;30059;-75
2021/03/10 09:48:34;;;;;;;25.80;21.77;;;4.50;1.40;;;5.37;96.88;95652.05;640799;220;24508;-75
2021/03/10 09:51:08;;;;;;;30.37;21.60;;;4.40;1.40;;;5.54;95.87;95652.75;641729;221;24522;-75
2021/03/10 09:53:40;;;;;;;22.60;19.93;;;4.50;1.40;;;5.15;97.34;95664.45;640272;220;24510;-75
2021/03/10 09:56:11;;;;;;;25.20;20.47;;;4.40;1.40;;;5.43;96.56;95658.17;640589;221;24508;-75
2021/03/10 09:58:55;;;;;;;26.50;21.57;;;4.60;1.40;;;5.72;94.68;95649.08;641345;220;24520;-75
2021/03/10 10:01:25;;;;;;;29.98;25.05;;;4.90;1.40;;;5.90;94.52;95655.09;634469;220;32311;-75
2021/03/10 10:03:54;;;;;;;26.63;21.80;;;5.00;1.40;;;5.89;94.49;95652.33;639493;220;23466;-75
2021/03/10 10:06:23;;;;;;;29.65;25.05;;;4.80;1.40;;;5.89;92.58;95664.44;635573;221;31749;-75
2021/03/10 10:08:52;;;;;;;27.62;24.08;;;4.80;1.40;;;5.89;93.12;95661.80;635508;221;32053;-76
2021/03/10 10:11:21;;;;;;;27.30;22.20;;;4.70;1.40;;;5.68;94.81;95647.09;640525;220;28877;-75
2021/03/10 10:13:50;;;;;;;25.43;20.50;;;4.60;1.40;;;5.58;93.47;95659.74;639544;221;24523;-75
2021/03/10 10:16:19;;;;;;;25.83;23.12;;;4.50;1.40;;;5.38;93.31;95657.44;632814;221;31810;-75
2021/03/10 10:18:49;;;;;;;25.63;20.57;;;4.50;1.40;;;5.51;94.40;95650.55;638018;221;23503;-75
2021/03/10 10:21:18;;;;;;;30.40;21.93;;;4.80;1.40;;;5.73;91.49;95654.89;639342;220;24520;-75
2021/03/10 10:23:47;;;;;;;26.10;20.30;;;4.90;1.40;;;6.23;92.29;95653.61;639903;221;28861;-75
2021/03/10 10:26:15;;;;;;;24.93;20.50;;;5.30;1.40;;;6.55;90.08;95655.64;637807;220;24553;-75
2021/03/10 10:28:44;;;;;;;24.33;19.60;;;5.70;1.40;;;6.54;87.35;95652.68;661877;216;24480;-75
2021/03/10 10:31:14;;;;;;;21.90;19.23;;;5.60;1.40;;;6.25;89.82;95660.94;662177;216;24722;-75
2021/03/10 10:36:24;;;;;;;26.08;23.27;;;5.20;1.40;;;6.03;89.10;95649.14;618023;226;32045;-77
2021/03/10 10:38:53;;;;;;;22.93;19.30;;;5.10;1.40;;;6.24;90.89;95646.50;615962;229;24622;-77
2021/03/10 10:41:22;;;;;;;23.87;21.10;;;5.40;1.40;;;6.04;86.75;95646.56;611140;230;32549;-77
2021/03/10 10:43:51;;;;;;;23.33;19.47;;;5.10;1.40;;;5.83;90.59;95654.70;614198;229;23599;-77
2021/03/10 10:46:20;;;;;;;23.07;18.50;;;5.00;1.40;;;5.71;90.67;95653.48;614739;230;24722;-77
2021/03/10 10:51:25;;;;;;;23.85;21.05;;;5.00;1.40;;;6.01;91.44;95652.86;646564;212;31965;-76
2021/03/10 10:53:54;;;;;;;23.93;18.60;;;5.20;1.40;;;6.13;90.96;95650.86;641351;221;24585;-74
2021/03/10 10:56:23;;;;;;;22.30;17.70;;;5.30;1.40;;;6.07;88.09;95650.05;641242;221;24518;-75
2021/03/10 10:58:52;;;;;;;24.70;18.17;;;5.30;1.40;;;6.10;86.97;95657.53;640366;220;25694;-74
2021/03/10 11:01:21;;;;;;;22.33;17.27;;;5.30;1.40;;;5.85;85.43;95647.44;642287;220;24540;-74
2021/03/10 11:03:51;;;;;;;23.57;17.90;;;5.10;1.40;;;6.15;85.21;95653.03;639548;221;24583;-74
2021/03/10 11:06:20;;;;;;;22.87;17.43;;;5.30;1.40;;;6.43;84.51;95650.26;640909;220;24686;-74
2021/03/10 11:11:23;;;;;;;23.45;20.55;;;5.50;1.40;;;6.69;83.29;95642.88;647194;216;31643;-74
2021/03/10 11:13:52;;;;;;;21.40;18.17;;;5.80;1.40;;;6.97;84.19;95637.31;641370;220;25905;-74
2021/03/10 11:16:21;;;;;;;20.83;17.17;;;5.90;1.40;;;6.59;84.72;95647.17;641808;221;25181;-74
2021/03/10 11:18:51;;;;;;;21.33;17.43;;;5.80;1.40;;;6.73;84.41;95642.25;639772;220;24622;-74
2021/03/10 11:21:19;;;;;;;19.67;17.50;;;5.90;1.40;;;6.63;83.71;95651.63;641058;221;24528;-74